PWSweather.com
Personal Weather Stations
Station Observations
MAHIABEACH
Mahia Beach, Mahia Peninsula Hawkes Bay -NZ 4108

Mahia BeachMahia Peninsula Hawkes Bay -NZ 4108

Lat: -39.08872, Lon: 177.878209

Elevation: 72

Station Type: WS2083

http://wairoa.net/mahia/index.htm

Latest ConditionsUpdated 6:30:05 PM GMT+12:12 Wednesday, Apr 25, 2018
Currently Today's Max Today's Min Today's Average
Temperature 57.6°F14.2°C 68.5°F20.3°C 55.8°F13.2°C 60.2°F15.7°C
Dew Point 50.8°F10.4°C 51.0°F10.6°C 43.4°F6.3°C 46.7°F8.2°C
Winds 4.5 mph N7.2 kmh N 6.3 mph SE10.1 kmh SE - 3.7 mph 6.0 kmh
Wind Gusts 7.6 mph12.2 kmh 10.7 mph17.2 kmh - -
Humidity 78% 78% 51% 61%
Pressure 30.12 in1020.0 mb 30.12 in1020.0 mb 30.04 in1017.3 mb -
Hour Temp Dew Point Humidity Winds Wind Gusts Pressure Precip Precip Rate Daily Precip Total
06:30 PM 57.6°F14.2°C 50.8°F10.4°C 78% 4.5 mph N7.2 kmh N 7.6 mph12.2 kmh 30.12 in1020.0 mb 0.00 in0.0 mm 0.00 in0.0 mm 0.00 in0.0 mm
06:15 PM 58.1°F14.5°C 50.6°F10.3°C 76% 4.7 mph N7.6 kmh N 8.3 mph13.4 kmh 30.11 in1019.6 mb 0.00 in0.0 mm 0.00 in0.0 mm 0.00 in0.0 mm
06:00 PM 58.3°F14.6°C 50.4°F10.2°C 75% 4.9 mph N7.9 kmh N 7.6 mph12.2 kmh 30.11 in1019.6 mb 0.00 in0.0 mm 0.00 in0.0 mm 0.00 in0.0 mm
05:45 PM 59.2°F15.1°C 50.2°F10.1°C 72% 5.0 mph N8.0 kmh N 8.3 mph13.4 kmh 30.09 in1019.0 mb 0.00 in0.0 mm 0.00 in0.0 mm 0.00 in0.0 mm
05:30 PM 60.1°F15.6°C 49.9°F9.9°C 69% 3.4 mph NNE5.5 kmh NNE 7.6 mph12.2 kmh 30.10 in1019.3 mb 0.00 in0.0 mm 0.00 in0.0 mm 0.00 in0.0 mm
05:15 PM 63.5°F17.5°C 49.8°F9.9°C 61% 2.4 mph N3.9 kmh N 4.5 mph7.2 kmh 30.10 in1019.3 mb 0.00 in0.0 mm 0.00 in0.0 mm 0.00 in0.0 mm
05:00 PM 65.7°F18.7°C 51.0°F10.6°C 59% 2.2 mph N3.5 kmh N 5.4 mph8.7 kmh 30.10 in1019.3 mb 0.00 in0.0 mm 0.00 in0.0 mm 0.00 in0.0 mm
04:45 PM 67.3°F19.6°C 50.6°F10.3°C 55% 1.9 mph N3.1 kmh N 5.4 mph8.7 kmh 30.10 in1019.3 mb 0.00 in0.0 mm 0.00 in0.0 mm 0.00 in0.0 mm
04:30 PM 67.3°F19.6°C 50.6°F10.3°C 55% 2.4 mph NNE3.9 kmh NNE 5.4 mph8.7 kmh 30.10 in1019.3 mb 0.00 in0.0 mm 0.00 in0.0 mm 0.00 in0.0 mm
04:15 PM 68.5°F20.3°C 49.7°F9.8°C 51% 2.4 mph SW3.9 kmh SW 6.9 mph11.1 kmh 30.09 in1019.0 mb 0.00 in0.0 mm 0.00 in0.0 mm 0.00 in0.0 mm
04:00 PM 68.5°F20.3°C 50.2°F10.1°C 52% 1.5 mph S2.4 kmh S 3.1 mph5.0 kmh 30.10 in1019.3 mb 0.00 in0.0 mm 0.00 in0.0 mm 0.00 in0.0 mm
03:45 PM 66.7°F19.3°C 50.6°F10.3°C 56% 2.5 mph SSE4.0 kmh SSE 4.5 mph7.2 kmh 30.10 in1019.3 mb 0.00 in0.0 mm 0.00 in0.0 mm 0.00 in0.0 mm
03:30 PM 65.3°F18.5°C 50.2°F10.1°C 58% 3.4 mph SE5.5 kmh SE 6.0 mph9.7 kmh 30.10 in1019.3 mb 0.00 in0.0 mm 0.00 in0.0 mm 0.00 in0.0 mm
03:15 PM 66.7°F19.3°C 50.1°F10.1°C 55% 2.9 mph S4.7 kmh S 6.9 mph11.1 kmh 30.10 in1019.3 mb 0.00 in0.0 mm 0.00 in0.0 mm 0.00 in0.0 mm
03:00 PM 65.3°F18.5°C 49.7°F9.8°C 57% 4.1 mph SE6.6 kmh SE 6.9 mph11.1 kmh 30.10 in1019.3 mb 0.00 in0.0 mm 0.00 in0.0 mm 0.00 in0.0 mm
02:45 PM 65.3°F18.5°C 48.7°F9.3°C 55% 4.7 mph SE7.6 kmh SE 7.6 mph12.2 kmh 30.10 in1019.3 mb 0.00 in0.0 mm 0.00 in0.0 mm 0.00 in0.0 mm
02:30 PM 65.3°F18.5°C 48.2°F9.0°C 54% 4.8 mph SE7.7 kmh SE 7.6 mph12.2 kmh 30.09 in1019.0 mb 0.00 in0.0 mm 0.00 in0.0 mm 0.00 in0.0 mm
02:15 PM 65.7°F18.7°C 48.6°F9.2°C 54% 4.3 mph SSE6.9 kmh SSE 7.6 mph12.2 kmh 30.10 in1019.3 mb 0.00 in0.0 mm 0.00 in0.0 mm 0.00 in0.0 mm
02:00 PM 65.3°F18.5°C 47.7°F8.7°C 53% 4.8 mph SE7.7 kmh SE 7.6 mph12.2 kmh 30.09 in1019.0 mb 0.00 in0.0 mm 0.00 in0.0 mm 0.00 in0.0 mm
01:45 PM 64.4°F18.0°C 46.9°F8.3°C 53% 4.8 mph SE7.7 kmh SE 7.6 mph12.2 kmh 30.09 in1019.0 mb 0.00 in0.0 mm 0.00 in0.0 mm 0.00 in0.0 mm
01:30 PM 65.3°F18.5°C 49.2°F9.6°C 56% 4.3 mph SE6.9 kmh SE 7.6 mph12.2 kmh 30.09 in1019.0 mb 0.00 in0.0 mm 0.00 in0.0 mm 0.00 in0.0 mm
01:15 PM 63.5°F17.5°C 48.9°F9.4°C 59% 4.9 mph SE7.9 kmh SE 9.2 mph14.8 kmh 30.10 in1019.3 mb 0.00 in0.0 mm 0.00 in0.0 mm 0.00 in0.0 mm
01:00 PM 64.2°F17.9°C 49.2°F9.6°C 58% 4.4 mph SE7.1 kmh SE 8.3 mph13.4 kmh 30.10 in1019.3 mb 0.00 in0.0 mm 0.00 in0.0 mm 0.00 in0.0 mm
12:45 PM 63.5°F17.5°C 48.5°F9.2°C 58% 6.0 mph SE9.7 kmh SE 9.2 mph14.8 kmh 30.10 in1019.3 mb 0.00 in0.0 mm 0.00 in0.0 mm 0.00 in0.0 mm
12:30 PM 63.3°F17.4°C 48.3°F9.1°C 58% 4.9 mph SE7.9 kmh SE 8.3 mph13.4 kmh 30.10 in1019.3 mb 0.00 in0.0 mm 0.00 in0.0 mm 0.00 in0.0 mm
12:15 PM 63.1°F17.3°C 48.1°F8.9°C 58% 4.8 mph SE7.7 kmh SE 8.3 mph13.4 kmh 30.11 in1019.6 mb 0.00 in0.0 mm 0.00 in0.0 mm 0.00 in0.0 mm
12:00 PM 63.5°F17.5°C 47.1°F8.4°C 55% 4.2 mph SE6.8 kmh SE 7.6 mph12.2 kmh 30.11 in1019.6 mb 0.00 in0.0 mm 0.00 in0.0 mm 0.00 in0.0 mm
11:45 AM 62.2°F16.8°C 47.7°F8.7°C 59% 5.7 mph SE9.2 kmh SE 9.8 mph15.8 kmh 30.12 in1020.0 mb 0.00 in0.0 mm 0.00 in0.0 mm 0.00 in0.0 mm
11:30 AM 61.7°F16.5°C 47.2°F8.4°C 59% 5.9 mph SE9.5 kmh SE 9.2 mph14.8 kmh 30.11 in1019.6 mb 0.00 in0.0 mm 0.00 in0.0 mm 0.00 in0.0 mm
11:15 AM 61.7°F16.5°C 47.2°F8.4°C 59% 6.3 mph SE10.1 kmh SE 9.8 mph15.8 kmh 30.12 in1020.0 mb 0.00 in0.0 mm 0.00 in0.0 mm 0.00 in0.0 mm
11:00 AM 62.2°F16.8°C 47.3°F8.5°C 58% 5.2 mph SE8.4 kmh SE 9.8 mph15.8 kmh 30.12 in1020.0 mb 0.00 in0.0 mm 0.00 in0.0 mm 0.00 in0.0 mm
10:45 AM 62.1°F16.7°C 48.0°F8.9°C 60% 4.6 mph SE7.4 kmh SE 8.3 mph13.4 kmh 30.12 in1020.0 mb 0.00 in0.0 mm 0.00 in0.0 mm 0.00 in0.0 mm
10:30 AM 61.2°F16.2°C 47.2°F8.4°C 60% 6.2 mph SE10.0 kmh SE 10.7 mph17.2 kmh 30.12 in1020.0 mb 0.00 in0.0 mm 0.00 in0.0 mm 0.00 in0.0 mm
10:15 AM 61.2°F16.2°C 46.7°F8.2°C 59% 5.7 mph ESE9.2 kmh ESE 10.7 mph17.2 kmh 30.12 in1020.0 mb 0.00 in0.0 mm 0.00 in0.0 mm 0.00 in0.0 mm
10:00 AM 60.8°F16.0°C 46.4°F8.0°C 59% 5.7 mph SE9.2 kmh SE 9.8 mph15.8 kmh 30.12 in1020.0 mb 0.00 in0.0 mm 0.00 in0.0 mm 0.00 in0.0 mm
09:45 AM 60.8°F16.0°C 46.4°F8.0°C 59% 5.6 mph ESE9.0 kmh ESE 9.8 mph15.8 kmh 30.12 in1020.0 mb 0.00 in0.0 mm 0.00 in0.0 mm 0.00 in0.0 mm
09:30 AM 61.3°F16.3°C 46.5°F8.1°C 58% 5.0 mph SE8.0 kmh SE 8.3 mph13.4 kmh 30.11 in1019.6 mb 0.00 in0.0 mm 0.00 in0.0 mm 0.00 in0.0 mm
09:15 AM 60.6°F15.9°C 45.8°F7.7°C 58% 5.9 mph SE9.5 kmh SE 8.3 mph13.4 kmh 30.11 in1019.6 mb 0.00 in0.0 mm 0.00 in0.0 mm 0.00 in0.0 mm
09:00 AM 60.3°F15.7°C 46.3°F7.9°C 60% 5.3 mph SE8.5 kmh SE 10.7 mph17.2 kmh 30.12 in1020.0 mb 0.00 in0.0 mm 0.00 in0.0 mm 0.00 in0.0 mm
08:45 AM 59.9°F15.5°C 46.4°F8.0°C 61% 5.0 mph SE8.0 kmh SE 9.2 mph14.8 kmh 30.11 in1019.6 mb 0.00 in0.0 mm 0.00 in0.0 mm 0.00 in0.0 mm
08:30 AM 59.9°F15.5°C 46.4°F8.0°C 61% 4.0 mph ESE6.4 kmh ESE 8.3 mph13.4 kmh 30.11 in1019.6 mb 0.00 in0.0 mm 0.00 in0.0 mm 0.00 in0.0 mm
08:15 AM 59.5°F15.3°C 46.1°F7.8°C 61% 3.3 mph ESE5.3 kmh ESE 7.6 mph12.2 kmh 30.11 in1019.6 mb 0.00 in0.0 mm 0.00 in0.0 mm 0.00 in0.0 mm
08:00 AM 57.7°F14.3°C 46.5°F8.1°C 66% 2.6 mph ENE4.2 kmh ENE 5.4 mph8.7 kmh 30.10 in1019.3 mb 0.00 in0.0 mm 0.00 in0.0 mm 0.00 in0.0 mm
07:45 AM 56.1°F13.4°C 45.7°F7.6°C 68% 2.7 mph ENE4.3 kmh ENE 6.0 mph9.7 kmh 30.09 in1019.0 mb 0.00 in0.0 mm 0.00 in0.0 mm 0.00 in0.0 mm
07:30 AM 55.8°F13.2°C 45.0°F7.2°C 67% 1.5 mph NE2.4 kmh NE 4.5 mph7.2 kmh 30.09 in1019.0 mb 0.00 in0.0 mm 0.00 in0.0 mm 0.00 in0.0 mm
07:15 AM 56.3°F13.5°C 45.1°F7.3°C 66% 2.9 mph E4.7 kmh E 7.6 mph12.2 kmh 30.09 in1019.0 mb 0.00 in0.0 mm 0.00 in0.0 mm 0.00 in0.0 mm
07:00 AM 56.3°F13.5°C 44.7°F7.1°C 65% 2.7 mph E4.3 kmh E 6.0 mph9.7 kmh 30.08 in1018.6 mb 0.00 in0.0 mm 0.00 in0.0 mm 0.00 in0.0 mm
06:45 AM 55.8°F13.2°C 45.0°F7.2°C 67% 3.2 mph E5.1 kmh E 6.0 mph9.7 kmh 30.07 in1018.3 mb 0.00 in0.0 mm 0.00 in0.0 mm 0.00 in0.0 mm
06:30 AM 55.9°F13.3°C 44.8°F7.1°C 66% 3.3 mph E5.3 kmh E 6.9 mph11.1 kmh 30.08 in1018.6 mb 0.00 in0.0 mm 0.00 in0.0 mm 0.00 in0.0 mm
06:15 AM 55.8°F13.2°C 44.6°F7.0°C 66% 2.6 mph ENE4.2 kmh ENE 6.0 mph9.7 kmh 30.07 in1018.3 mb 0.00 in0.0 mm 0.00 in0.0 mm 0.00 in0.0 mm
06:00 AM 56.1°F13.4°C 44.1°F6.7°C 64% 3.3 mph E5.3 kmh E 6.9 mph11.1 kmh 30.07 in1018.3 mb 0.00 in0.0 mm 0.00 in0.0 mm 0.00 in0.0 mm
05:45 AM 56.3°F13.5°C 44.3°F6.8°C 64% 3.3 mph E5.3 kmh E 8.3 mph13.4 kmh 30.07 in1018.3 mb 0.00 in0.0 mm 0.00 in0.0 mm 0.00 in0.0 mm
05:30 AM 56.5°F13.6°C 44.5°F6.9°C 64% 3.3 mph ESE5.3 kmh ESE 6.9 mph11.1 kmh 30.06 in1017.9 mb 0.00 in0.0 mm 0.00 in0.0 mm 0.00 in0.0 mm
05:15 AM 56.8°F13.8°C 44.8°F7.1°C 64% 5.0 mph ESE8.0 kmh ESE 9.2 mph14.8 kmh 30.07 in1018.3 mb 0.00 in0.0 mm 0.00 in0.0 mm 0.00 in0.0 mm
05:00 AM 56.3°F13.5°C 44.7°F7.1°C 65% 3.2 mph E5.1 kmh E 6.9 mph11.1 kmh 30.06 in1017.9 mb 0.00 in0.0 mm 0.00 in0.0 mm 0.00 in0.0 mm
04:45 AM 56.1°F13.4°C 44.5°F6.9°C 65% 2.9 mph E4.7 kmh E 5.4 mph8.7 kmh 30.05 in1017.6 mb 0.00 in0.0 mm 0.00 in0.0 mm 0.00 in0.0 mm
04:30 AM 56.3°F13.5°C 44.3°F6.8°C 64% 2.8 mph E4.5 kmh E 6.9 mph11.1 kmh 30.05 in1017.6 mb 0.00 in0.0 mm 0.00 in0.0 mm 0.00 in0.0 mm
04:15 AM 56.7°F13.7°C 44.2°F6.8°C 63% 4.2 mph ESE6.8 kmh ESE 9.2 mph14.8 kmh 30.05 in1017.6 mb 0.00 in0.0 mm 0.00 in0.0 mm 0.00 in0.0 mm
04:00 AM 56.3°F13.5°C 44.3°F6.8°C 64% 3.1 mph E5.0 kmh E 6.0 mph9.7 kmh 30.05 in1017.6 mb 0.00 in0.0 mm 0.00 in0.0 mm 0.00 in0.0 mm
03:45 AM 55.8°F13.2°C 43.4°F6.3°C 63% 1.4 mph E2.3 kmh E 6.0 mph9.7 kmh 30.04 in1017.3 mb 0.00 in0.0 mm 0.00 in0.0 mm 0.00 in0.0 mm
03:30 AM 56.7°F13.7°C 44.2°F6.8°C 63% 2.0 mph ESE3.2 kmh ESE 6.0 mph9.7 kmh 30.05 in1017.6 mb 0.00 in0.0 mm 0.00 in0.0 mm 0.00 in0.0 mm
03:15 AM 56.3°F13.5°C 44.3°F6.8°C 64% 2.5 mph ENE4.0 kmh ENE 6.9 mph11.1 kmh 30.04 in1017.3 mb 0.00 in0.0 mm 0.00 in0.0 mm 0.00 in0.0 mm
03:00 AM 57.2°F14.0°C 43.5°F6.4°C 60% 3.3 mph E5.3 kmh E 9.8 mph15.8 kmh 30.05 in1017.6 mb 0.00 in0.0 mm 0.00 in0.0 mm 0.00 in0.0 mm
02:45 AM 57.2°F14.0°C 43.9°F6.6°C 61% 2.9 mph SE4.7 kmh SE 6.0 mph9.7 kmh 30.05 in1017.6 mb 0.00 in0.0 mm 0.00 in0.0 mm 0.00 in0.0 mm
02:30 AM 57.2°F14.0°C 43.9°F6.6°C 61% 3.2 mph SE5.1 kmh SE 7.6 mph12.2 kmh 30.05 in1017.6 mb 0.00 in0.0 mm 0.00 in0.0 mm 0.00 in0.0 mm
02:15 AM 57.2°F14.0°C 43.9°F6.6°C 61% 3.2 mph SE5.1 kmh SE 7.6 mph12.2 kmh 30.05 in1017.6 mb 0.00 in0.0 mm 0.00 in0.0 mm 0.00 in0.0 mm
02:00 AM 57.2°F14.0°C 44.3°F6.8°C 62% 3.4 mph SE5.5 kmh SE 8.3 mph13.4 kmh 30.06 in1017.9 mb 0.00 in0.0 mm 0.00 in0.0 mm 0.00 in0.0 mm
01:45 AM 57.4°F14.1°C 44.5°F6.9°C 62% 3.8 mph SE6.1 kmh SE 7.6 mph12.2 kmh 30.06 in1017.9 mb 0.00 in0.0 mm 0.00 in0.0 mm 0.00 in0.0 mm
01:30 AM 57.2°F14.0°C 44.7°F7.1°C 63% 2.1 mph SE3.4 kmh SE 7.6 mph12.2 kmh 30.06 in1017.9 mb 0.00 in0.0 mm 0.00 in0.0 mm 0.00 in0.0 mm
01:15 AM 56.8°F13.8°C 44.8°F7.1°C 64% 2.6 mph ESE4.2 kmh ESE 6.9 mph11.1 kmh 30.06 in1017.9 mb 0.00 in0.0 mm 0.00 in0.0 mm 0.00 in0.0 mm
01:00 AM 56.8°F13.8°C 44.4°F6.9°C 63% 1.5 mph NE2.4 kmh NE 5.4 mph8.7 kmh 30.05 in1017.6 mb 0.00 in0.0 mm 0.00 in0.0 mm 0.00 in0.0 mm
12:45 AM 57.6°F14.2°C 44.7°F7.1°C 62% 2.3 mph E3.7 kmh E 6.9 mph11.1 kmh 30.05 in1017.6 mb 0.00 in0.0 mm 0.00 in0.0 mm 0.00 in0.0 mm
12:30 AM 57.4°F14.1°C 44.5°F6.9°C 62% 1.7 mph NE2.7 kmh NE 5.4 mph8.7 kmh 30.04 in1017.3 mb 0.00 in0.0 mm 0.00 in0.0 mm 0.00 in0.0 mm
12:15 AM 57.4°F14.1°C 44.5°F6.9°C 62% 2.0 mph ENE3.2 kmh ENE 3.8 mph6.1 kmh 30.04 in1017.3 mb 0.00 in0.0 mm 0.00 in0.0 mm 0.00 in0.0 mm
12:00 AM 57.9°F14.4°C 44.6°F7.0°C 61% 2.3 mph E3.7 kmh E 4.5 mph7.2 kmh 30.04 in1017.3 mb 0.00 in0.0 mm 0.00 in0.0 mm 0.00 in0.0 mm